createdAt,value
2022-09-01T00:01:49.685Z,4.93
2022-09-01T00:04:21.292Z,5.10
2022-09-01T00:06:49.145Z,4.87
2022-09-01T00:09:18.926Z,5.25
2022-09-01T00:11:50.707Z,4.68
2022-09-01T00:14:29.934Z,4.68
2022-09-01T00:17:02.712Z,5.18
2022-09-01T00:19:29.844Z,4.90
2022-09-01T00:21:57.240Z,4.82
2022-09-01T00:24:26.416Z,4.40
2022-09-01T00:26:55.036Z,5.15
2022-09-01T00:29:22.302Z,4.55
2022-09-01T00:31:50.339Z,4.60
2022-09-01T00:34:17.706Z,4.65
2022-09-01T00:36:44.983Z,5.20
2022-09-01T00:39:14.128Z,4.62
2022-09-01T00:41:43.047Z,4.45
2022-09-01T00:44:13.591Z,4.47
2022-09-01T00:46:49.673Z,4.30
2022-09-01T00:49:37.238Z,4.65
2022-09-01T00:52:44.175Z,4.15
2022-09-01T00:55:17.790Z,4.80
2022-09-01T00:57:45.879Z,4.78
2022-09-01T01:00:23.589Z,4.75
2022-09-01T01:02:56.334Z,4.43
2022-09-01T01:05:28.128Z,4.87
2022-09-01T01:07:56.081Z,5.57
2022-09-01T01:10:24.426Z,4.55
2022-09-01T01:12:51.843Z,4.78
2022-09-01T01:15:19.489Z,4.75
2022-09-01T01:17:46.291Z,5.25
2022-09-01T01:20:36.160Z,4.60
2022-09-01T01:23:21.019Z,4.25
2022-09-01T01:25:56.096Z,4.47
2022-09-01T01:28:44.441Z,4.47
2022-09-01T01:31:19.586Z,4.97
2022-09-01T01:33:58.094Z,4.68
2022-09-01T01:36:32.658Z,4.10
2022-09-01T01:39:03.973Z,4.47
2022-09-01T01:41:33.597Z,4.47
2022-09-01T01:44:04.529Z,5.10
2022-09-01T01:46:33.908Z,5.37
2022-09-01T01:49:02.566Z,4.37
2022-09-01T01:51:32.047Z,4.80
2022-09-01T01:54:01.965Z,5.70
2022-09-01T01:56:28.815Z,5.40
2022-09-01T01:58:59.045Z,4.35
2022-09-01T02:01:29.417Z,4.43
2022-09-01T02:03:57.858Z,4.03
2022-09-01T02:06:28.273Z,4.07
2022-09-01T02:08:58.212Z,3.95
2022-09-01T02:11:26.417Z,4.03
2022-09-01T02:13:57.610Z,4.12
2022-09-01T02:16:27.380Z,3.90
2022-09-01T02:21:23.890Z,4.00
2022-09-01T02:26:34.233Z,4.90
2022-09-01T02:29:04.905Z,5.18
2022-09-01T02:31:35.535Z,4.10
2022-09-01T02:34:03.952Z,4.68
2022-09-01T02:36:33.014Z,4.20
2022-09-01T02:38:59.858Z,4.57
2022-09-01T02:41:29.380Z,4.62
2022-09-01T02:46:24.623Z,4.32
2022-09-01T02:48:52.470Z,4.62
2022-09-01T02:51:22.709Z,4.03
2022-09-01T02:53:52.996Z,5.25
2022-09-01T02:56:23.911Z,4.90
2022-09-01T02:58:53.488Z,5.45
2022-09-01T03:01:26.482Z,4.97
2022-09-01T03:03:56.383Z,5.00
2022-09-01T03:06:24.721Z,5.55
2022-09-01T03:08:59.112Z,6.20
2022-09-01T03:11:27.459Z,5.97
2022-09-01T03:13:54.178Z,5.68
2022-09-01T03:16:22.618Z,5.97
2022-09-01T03:18:50.770Z,5.43
2022-09-01T03:21:18.342Z,6.22
2022-09-01T03:23:47.122Z,5.80
2022-09-01T03:26:15.134Z,6.03
2022-09-01T03:28:42.033Z,5.57
2022-09-01T03:31:09.185Z,5.82
2022-09-01T03:33:36.970Z,6.30
2022-09-01T03:36:05.382Z,6.07
2022-09-01T03:38:44.245Z,6.25
2022-09-01T03:41:13.475Z,5.70
2022-09-01T03:43:45.893Z,4.82
2022-09-01T03:46:22.006Z,5.60
2022-09-01T03:48:52.088Z,6.10
2022-09-01T03:51:23.064Z,6.22
2022-09-01T03:53:54.613Z,6.35
2022-09-01T03:56:24.800Z,6.43
2022-09-01T03:58:52.253Z,6.53
2022-09-01T04:01:19.995Z,6.55
2022-09-01T04:03:49.552Z,6.00
2022-09-01T04:06:19.559Z,5.90
2022-09-01T04:08:47.364Z,6.95
2022-09-01T04:11:18.971Z,5.57
2022-09-01T04:13:47.471Z,6.55
2022-09-01T04:16:39.518Z,5.68
2022-09-01T04:19:16.208Z,6.70
2022-09-01T04:21:54.481Z,6.22
2022-09-01T04:24:24.328Z,6.47
2022-09-01T04:26:52.912Z,6.07
2022-09-01T04:29:27.759Z,6.20
2022-09-01T04:32:02.704Z,5.93
2022-09-01T04:34:37.362Z,5.12
2022-09-01T04:37:13.395Z,5.78
2022-09-01T04:39:52.467Z,6.28
2022-09-01T04:42:23.700Z,5.07
2022-09-01T04:44:54.759Z,4.95
2022-09-01T04:47:31.604Z,5.65
2022-09-01T04:50:06.080Z,4.18
2022-09-01T04:54:59.700Z,4.28
2022-09-01T04:57:27.829Z,3.05
2022-09-01T04:59:57.266Z,2.40
2022-09-01T05:02:27.335Z,2.08
2022-09-01T05:04:54.435Z,2.45
2022-09-01T05:07:21.642Z,2.53
2022-09-01T05:09:48.462Z,2.00
2022-09-01T05:12:16.708Z,2.30
2022-09-01T05:14:48.889Z,1.98
2022-09-01T05:17:21.983Z,1.98
2022-09-01T05:19:51.286Z,2.03
2022-09-01T05:22:23.180Z,2.37
2022-09-01T05:24:55.434Z,2.22
2022-09-01T05:27:23.028Z,2.55
2022-09-01T05:29:50.603Z,2.17
2022-09-01T05:32:17.630Z,2.90
2022-09-01T05:34:45.267Z,1.83
2022-09-01T05:37:14.699Z,2.37
2022-09-01T05:39:41.768Z,2.47
2022-09-01T05:42:08.726Z,2.53
2022-09-01T05:44:45.093Z,3.75
2022-09-01T05:47:14.758Z,3.42
2022-09-01T05:49:48.057Z,2.55
2022-09-01T05:52:14.827Z,2.10
2022-09-01T05:54:41.616Z,2.50
2022-09-01T05:57:30.740Z,2.30
2022-09-01T05:59:55.197Z,2.35
2022-09-01T06:02:24.269Z,3.03
2022-09-01T06:04:52.996Z,3.60
2022-09-01T06:07:25.249Z,3.22
2022-09-01T06:09:53.916Z,4.05
2022-09-01T06:12:24.050Z,2.80
2022-09-01T06:14:54.277Z,3.80
2022-09-01T06:17:25.107Z,3.65
2022-09-01T06:19:59.492Z,3.78
2022-09-01T06:22:31.201Z,3.37
2022-09-01T06:25:03.242Z,4.00
2022-09-01T06:27:31.314Z,3.92
2022-09-01T06:29:58.519Z,4.90
2022-09-01T06:32:27.251Z,3.75
2022-09-01T06:34:54.346Z,3.83
2022-09-01T06:37:22.845Z,3.97
2022-09-01T06:39:51.890Z,2.55
2022-09-01T06:42:19.710Z,3.77
2022-09-01T06:44:46.649Z,4.10
2022-09-01T06:47:15.728Z,4.20
2022-09-01T06:49:42.778Z,3.62
2022-09-01T06:52:11.988Z,3.50
2022-09-01T06:54:39.786Z,3.78
2022-09-01T06:59:54.489Z,2.45
2022-09-01T07:02:26.564Z,3.08
2022-09-01T07:04:54.590Z,2.92
2022-09-01T07:10:21.052Z,2.50
2022-09-01T07:13:06.000Z,2.78
2022-09-01T07:16:31.950Z,2.70
2022-09-01T07:18:22.850Z,3.00
2022-09-01T07:21:35.888Z,3.05
2022-09-01T07:24:07.888Z,2.92
2022-09-01T07:26:27.180Z,3.10
2022-09-01T07:29:01.686Z,2.70
2022-09-01T07:39:55.433Z,2.30
2022-09-01T07:45:28.348Z,2.80
2022-09-01T07:47:57.455Z,2.53
2022-09-01T07:53:25.436Z,2.45
2022-09-01T07:55:54.618Z,2.33
2022-09-01T07:58:25.287Z,1.67
2022-09-01T08:00:53.537Z,2.42
2022-09-01T08:03:23.831Z,2.50
2022-09-01T08:05:55.771Z,2.90
2022-09-01T08:08:26.374Z,3.08
2022-09-01T08:11:04.411Z,2.72
2022-09-01T08:13:34.653Z,3.12
2022-09-01T08:16:08.350Z,2.40
2022-09-01T08:18:51.029Z,2.28
2022-09-01T08:21:22.255Z,2.53
2022-09-01T08:23:50.873Z,2.08
2022-09-01T08:26:19.576Z,3.00
2022-09-01T08:28:54.334Z,2.30
2022-09-01T08:31:22.976Z,2.87
2022-09-01T08:33:51.053Z,2.60
2022-09-01T08:36:23.686Z,2.70
2022-09-01T08:38:53.216Z,2.70
2022-09-01T08:41:47.362Z,2.33
2022-09-01T08:44:39.167Z,2.37
2022-09-01T08:47:12.876Z,3.53
2022-09-01T08:49:46.400Z,3.62
2022-09-01T08:52:34.256Z,4.18
2022-09-01T08:55:31.867Z,4.43
2022-09-01T08:58:00.998Z,5.68
2022-09-01T09:00:30.825Z,5.18
2022-09-01T09:03:19.074Z,5.62
2022-09-01T09:06:13.756Z,5.20
2022-09-01T09:08:49.375Z,5.80
2022-09-01T09:11:22.318Z,6.05
2022-09-01T09:14:01.168Z,6.30
2022-09-01T09:16:36.008Z,5.50
2022-09-01T09:19:12.907Z,5.68
2022-09-01T09:21:45.529Z,5.90
2022-09-01T09:24:52.946Z,4.60
2022-09-01T09:27:26.871Z,4.30
2022-09-01T09:30:08.331Z,4.28
2022-09-01T09:33:37.288Z,3.62
2022-09-01T09:35:47.549Z,3.55
2022-09-01T09:38:24.346Z,4.25
2022-09-01T09:44:01.295Z,3.58
2022-09-01T09:46:36.952Z,3.95
2022-09-01T09:49:36.593Z,4.25
2022-09-01T09:52:10.651Z,4.43
2022-09-01T09:54:59.706Z,4.87
2022-09-01T09:57:26.802Z,4.53
2022-09-01T10:00:00.624Z,5.53
2022-09-01T10:02:37.535Z,6.03
2022-09-01T10:05:30.149Z,4.78
2022-09-01T10:07:58.465Z,5.25
2022-09-01T10:10:58.186Z,4.87
2022-09-01T10:13:33.578Z,4.68
2022-09-01T10:16:05.578Z,4.70
2022-09-01T10:18:45.093Z,4.82
2022-09-01T10:21:24.306Z,4.62
2022-09-01T10:23:51.189Z,4.07
2022-09-01T10:26:25.291Z,4.90
2022-09-01T10:29:01.076Z,3.95
2022-09-01T10:31:32.434Z,4.20
2022-09-01T10:34:05.704Z,4.25
2022-09-01T10:36:35.974Z,4.00
2022-09-01T10:39:08.792Z,3.80
2022-09-01T10:42:00.029Z,4.30
2022-09-01T10:44:36.374Z,4.62
2022-09-01T10:47:24.681Z,4.18
2022-09-01T10:49:51.604Z,4.20
2022-09-01T10:52:43.761Z,3.85
2022-09-01T10:55:41.957Z,4.45
2022-09-01T11:01:39.630Z,4.12
2022-09-01T11:04:03.459Z,3.85
2022-09-01T11:09:45.423Z,3.30
2022-09-01T11:12:30.269Z,2.97
2022-09-01T11:15:06.974Z,3.35
2022-09-01T11:17:38.018Z,3.12
2022-09-01T11:20:25.331Z,3.53
2022-09-01T11:23:28.042Z,3.22
2022-09-01T11:26:21.193Z,3.25
2022-09-01T11:28:49.010Z,3.28
2022-09-01T11:31:32.725Z,3.10
2022-09-01T11:34:04.063Z,3.37
2022-09-01T11:36:35.593Z,2.97
2022-09-01T11:39:19.198Z,3.05
2022-09-01T11:42:09.183Z,3.20
2022-09-01T11:45:06.573Z,2.30
2022-09-01T11:47:40.643Z,2.37
2022-09-01T11:50:17.223Z,3.22
2022-09-01T11:53:04.755Z,2.70
2022-09-01T11:55:38.184Z,2.75
2022-09-01T11:58:05.826Z,2.03
2022-09-01T12:00:38.649Z,2.10
2022-09-01T12:03:23.992Z,1.60
2022-09-01T12:06:04.279Z,2.22
2022-09-01T12:08:34.953Z,1.52
2022-09-01T12:11:07.911Z,1.50
2022-09-01T12:13:35.721Z,1.37
2022-09-01T12:16:17.985Z,1.23
2022-09-01T12:18:49.135Z,0.93
2022-09-01T12:21:43.837Z,1.10
2022-09-01T12:24:23.294Z,0.90
2022-09-01T12:26:59.206Z,1.08
2022-09-01T12:29:28.880Z,1.27
2022-09-01T12:32:00.624Z,0.90
2022-09-01T12:34:33.514Z,1.10
2022-09-01T12:37:09.503Z,1.65
2022-09-01T12:39:42.639Z,1.40
2022-09-01T12:42:21.896Z,1.62
2022-09-01T12:44:53.908Z,1.45
2022-09-01T12:47:50.421Z,1.58
2022-09-01T12:50:17.631Z,1.12
2022-09-01T12:53:14.032Z,1.45
2022-09-01T12:55:48.305Z,1.60
2022-09-01T12:58:25.855Z,1.00
2022-09-01T13:00:59.673Z,1.50
2022-09-01T13:03:29.627Z,1.33
2022-09-01T13:05:59.949Z,1.05
2022-09-01T13:08:36.014Z,1.20
2022-09-01T13:11:08.262Z,1.70
2022-09-01T13:13:46.907Z,1.70
2022-09-01T13:16:15.550Z,1.30
2022-09-01T13:21:31.315Z,1.15
2022-09-01T13:23:58.808Z,1.75
2022-09-01T13:26:26.513Z,1.55
2022-09-01T13:28:53.964Z,1.30
2022-09-01T13:31:29.220Z,1.90
2022-09-01T13:34:23.095Z,1.80
2022-09-01T13:36:47.349Z,1.65
2022-09-01T13:39:17.137Z,1.95
2022-09-01T13:41:47.347Z,1.62
2022-09-01T13:44:14.635Z,1.45
2022-09-01T13:50:05.452Z,1.60
2022-09-01T13:52:15.713Z,1.50
2022-09-01T13:54:44.598Z,1.60
2022-09-01T13:57:11.943Z,1.98
2022-09-01T13:59:39.293Z,1.70
2022-09-01T14:02:06.425Z,1.20
2022-09-01T14:04:33.281Z,1.40
2022-09-01T14:07:00.233Z,1.65
2022-09-01T14:09:27.197Z,1.80
2022-09-01T14:11:55.803Z,1.77
2022-09-01T14:14:23.155Z,1.62
2022-09-01T14:16:49.970Z,1.80
2022-09-01T14:19:17.033Z,1.67
2022-09-01T14:21:45.405Z,2.53
2022-09-01T14:24:13.265Z,1.60
2022-09-01T14:26:41.775Z,1.90
2022-09-01T14:29:08.676Z,1.75
2022-09-01T14:31:37.944Z,1.50
2022-09-01T14:34:06.931Z,1.55
2022-09-01T14:36:33.772Z,2.10
2022-09-01T14:39:00.850Z,1.67
2022-09-01T14:41:27.624Z,1.60
2022-09-01T14:44:02.801Z,1.80
2022-09-01T14:46:31.205Z,2.35
2022-09-01T14:48:58.062Z,1.58
2022-09-01T14:52:10.209Z,3.47
2022-09-01T14:54:16.045Z,1.65
2022-09-01T14:57:27.187Z,2.03
2022-09-01T14:59:29.622Z,1.70
2022-09-01T15:01:56.486Z,1.60
2022-09-01T15:04:23.289Z,1.92
2022-09-01T15:06:50.300Z,1.55
2022-09-01T15:09:19.146Z,1.60
2022-09-01T15:11:46.832Z,1.83
2022-09-01T15:14:13.661Z,1.48
2022-09-01T15:16:41.819Z,1.80
2022-09-01T15:19:11.101Z,1.92
2022-09-01T15:21:40.474Z,1.67
2022-09-01T15:24:08.847Z,2.17
2022-09-01T15:26:37.416Z,1.73
2022-09-01T15:29:05.055Z,2.00
2022-09-01T15:31:33.729Z,1.50
2022-09-01T15:34:03.411Z,1.70
2022-09-01T15:38:59.076Z,1.95
2022-09-01T15:41:28.792Z,1.50
2022-09-01T15:43:56.887Z,1.92
2022-09-01T15:46:32.110Z,1.67
2022-09-01T15:49:00.702Z,2.28
2022-09-01T15:51:37.589Z,1.60
2022-09-01T15:54:16.554Z,1.87
2022-09-01T15:56:43.621Z,2.08
2022-09-01T15:59:11.791Z,1.70
2022-09-01T16:01:42.904Z,1.75
2022-09-01T16:04:17.796Z,1.52
2022-09-01T16:06:46.374Z,1.75
2022-09-01T16:09:13.877Z,1.87
2022-09-01T16:11:43.542Z,1.62
2022-09-01T16:14:10.649Z,2.47
2022-09-01T16:17:09.599Z,2.03
2022-09-01T16:19:51.956Z,1.55
2022-09-01T16:22:28.349Z,1.58
2022-09-01T16:25:01.024Z,1.90
2022-09-01T16:27:44.472Z,1.73
2022-09-01T16:30:14.497Z,2.00
2022-09-01T16:32:45.919Z,1.60
2022-09-01T16:35:14.118Z,1.60
2022-09-01T16:37:58.364Z,1.65
2022-09-01T16:40:39.730Z,1.70
2022-09-01T16:43:15.647Z,1.92
2022-09-01T16:45:51.839Z,1.55
2022-09-01T16:48:21.362Z,1.70
2022-09-01T16:53:48.391Z,2.00
2022-09-01T16:56:24.057Z,2.03
2022-09-01T16:59:15.058Z,1.87
2022-09-01T17:01:52.508Z,2.00
2022-09-01T17:04:19.326Z,2.33
2022-09-01T17:06:57.386Z,2.22
2022-09-01T17:09:33.754Z,2.70
2022-09-01T17:12:18.155Z,2.12
2022-09-01T17:14:59.751Z,2.40
2022-09-01T17:17:41.758Z,2.42
2022-09-01T17:20:08.986Z,2.92
2022-09-01T17:22:37.761Z,2.67
2022-09-01T17:25:13.661Z,2.57
2022-09-01T17:27:58.380Z,2.87
2022-09-01T17:30:25.562Z,2.58
2022-09-01T17:33:17.176Z,2.62
2022-09-01T17:36:10.832Z,2.10
2022-09-01T17:38:54.317Z,2.50
2022-09-01T17:42:11.694Z,1.95
2022-09-01T17:44:55.604Z,2.33
2022-09-01T17:47:26.615Z,2.53
2022-09-01T17:50:18.546Z,2.08
2022-09-01T17:53:11.133Z,1.95
2022-09-01T17:55:54.839Z,1.92
2022-09-01T17:58:59.924Z,1.85
2022-09-01T18:01:45.661Z,1.70
2022-09-01T18:04:38.769Z,1.50
2022-09-01T18:07:42.250Z,2.20
2022-09-01T18:10:17.833Z,1.95
2022-09-01T18:12:46.954Z,1.83
2022-09-01T18:15:24.504Z,2.65
2022-09-01T18:17:55.541Z,2.28
2022-09-01T18:20:31.528Z,2.37
2022-09-01T18:23:04.716Z,2.33
2022-09-01T18:25:59.934Z,2.05
2022-09-01T18:28:26.784Z,2.67
2022-09-01T18:30:59.674Z,2.25
2022-09-01T18:33:26.458Z,2.55
2022-09-01T18:36:11.515Z,2.37
2022-09-01T18:38:45.177Z,2.12
2022-09-01T18:42:05.542Z,2.28
2022-09-01T18:47:17.363Z,2.12
2022-09-01T18:50:00.626Z,2.20
2022-09-01T18:52:33.421Z,2.28
2022-09-01T18:55:02.695Z,2.50
2022-09-01T18:57:38.375Z,2.22
2022-09-01T19:00:19.291Z,2.20
2022-09-01T19:02:59.648Z,2.30
2022-09-01T19:05:45.912Z,2.50
2022-09-01T19:08:37.880Z,2.42
2022-09-01T19:11:26.509Z,2.03
2022-09-01T19:14:11.584Z,2.30
2022-09-01T19:16:44.538Z,2.85
2022-09-01T19:19:11.644Z,2.20
2022-09-01T19:21:39.439Z,2.40
2022-09-01T19:24:13.406Z,3.28
2022-09-01T19:26:46.150Z,3.03
2022-09-01T19:29:19.579Z,2.50
2022-09-01T19:32:02.078Z,2.62
2022-09-01T19:34:46.118Z,2.53
2022-09-01T19:37:13.278Z,2.60
2022-09-01T19:39:44.767Z,2.35
2022-09-01T19:42:20.353Z,2.67
2022-09-01T19:45:24.447Z,2.10
2022-09-01T19:48:15.270Z,1.70
2022-09-01T19:51:03.563Z,2.20
2022-09-01T19:53:44.562Z,2.15
2022-09-01T19:56:15.149Z,2.20
2022-09-01T19:58:51.771Z,2.22
2022-09-01T20:01:32.680Z,2.30
2022-09-01T20:04:04.230Z,2.78
2022-09-01T20:06:35.272Z,2.78
2022-09-01T20:09:16.453Z,2.03
2022-09-01T20:12:05.795Z,2.10
2022-09-01T20:14:56.848Z,2.85
2022-09-01T20:17:29.454Z,2.60
2022-09-01T20:20:21.920Z,2.35
2022-09-01T20:23:07.454Z,2.20
2022-09-01T20:25:58.959Z,2.53
2022-09-01T20:28:31.361Z,2.53
2022-09-01T20:31:12.451Z,2.53
2022-09-01T20:33:47.149Z,2.50
2022-09-01T20:36:45.150Z,2.42
2022-09-01T20:39:47.156Z,2.40
2022-09-01T20:42:21.395Z,2.08
2022-09-01T20:44:55.444Z,2.12
2022-09-01T20:47:27.930Z,2.10
2022-09-01T20:49:57.316Z,2.20
2022-09-01T20:52:52.056Z,2.05
2022-09-01T20:55:25.177Z,2.20
2022-09-01T20:58:11.426Z,2.25
2022-09-01T21:01:17.651Z,2.10
2022-09-01T21:04:09.399Z,2.62
2022-09-01T21:06:49.156Z,2.22
2022-09-01T21:09:28.585Z,2.87
2022-09-01T21:12:17.826Z,2.40
2022-09-01T21:14:57.222Z,2.60
2022-09-01T21:17:49.763Z,2.47
2022-09-01T21:20:38.586Z,2.62
2022-09-01T21:23:06.811Z,2.62
2022-09-01T21:25:34.014Z,2.05
2022-09-01T21:28:04.591Z,2.10
2022-09-01T21:30:34.198Z,2.45
2022-09-01T21:35:28.745Z,2.70
2022-09-01T21:37:55.517Z,2.37
2022-09-01T21:40:24.530Z,1.95
2022-09-01T21:42:54.594Z,2.05
2022-09-01T21:45:22.422Z,1.75
2022-09-01T21:47:50.910Z,1.87
2022-09-01T21:50:20.549Z,2.30
2022-09-01T21:55:17.483Z,2.10
2022-09-01T21:57:47.725Z,1.73
2022-09-01T22:00:21.822Z,2.25
2022-09-01T22:02:48.887Z,1.55
2022-09-01T22:05:15.720Z,1.98
2022-09-01T22:07:45.606Z,1.90
2022-09-01T22:10:16.520Z,1.45
2022-09-01T22:12:45.936Z,2.60
2022-09-01T22:15:16.236Z,1.60
2022-09-01T22:17:43.327Z,2.30
2022-09-01T22:20:12.257Z,1.60
2022-09-01T22:22:39.545Z,1.70
2022-09-01T22:25:09.442Z,2.03
2022-09-01T22:27:36.324Z,1.77
2022-09-01T22:30:05.643Z,1.87
2022-09-01T22:32:36.297Z,1.60
2022-09-01T22:35:05.340Z,1.83
2022-09-01T22:37:32.142Z,1.75
2022-09-01T22:39:58.984Z,1.83
2022-09-01T22:42:25.811Z,1.20
2022-09-01T22:44:52.668Z,1.87
2022-09-01T22:47:19.492Z,1.60
2022-09-01T22:49:46.241Z,1.50
2022-09-01T22:52:13.949Z,1.48
2022-09-01T22:54:40.787Z,1.12
2022-09-01T22:57:07.671Z,1.35
2022-09-01T22:59:34.499Z,1.33
2022-09-01T23:02:02.013Z,1.20
2022-09-01T23:04:31.514Z,1.33
2022-09-01T23:06:58.338Z,1.15
2022-09-01T23:09:25.299Z,1.20
2022-09-01T23:11:52.358Z,1.15
2022-09-01T23:14:19.187Z,1.08
2022-09-01T23:16:47.310Z,1.20
2022-09-01T23:19:22.180Z,1.08
2022-09-01T23:21:49.965Z,1.48
2022-09-01T23:24:19.743Z,1.33
2022-09-01T23:26:47.539Z,1.02
2022-09-01T23:29:14.558Z,0.98
2022-09-01T23:31:41.893Z,1.12
2022-09-01T23:34:08.893Z,1.20
2022-09-01T23:36:36.868Z,1.10
2022-09-01T23:39:05.179Z,0.75
2022-09-01T23:41:34.802Z,1.05
2022-09-01T23:46:37.273Z,1.30
2022-09-01T23:49:05.565Z,1.27
2022-09-01T23:51:32.395Z,0.85
2022-09-01T23:53:59.534Z,1.33
2022-09-01T23:56:28.504Z,1.10
2022-09-01T23:58:55.857Z,1.35
